sensor_id;sensor_type;location;lat;lon;timestamp;temperature;humidity
9975;DHT22;5028;50.974;4.968;2023-11-22T00:01:07;5.00;99.90
9975;DHT22;5028;50.974;4.968;2023-11-22T00:03:38;5.00;99.90
9975;DHT22;5028;50.974;4.968;2023-11-22T00:06:08;5.00;99.90
9975;DHT22;5028;50.974;4.968;2023-11-22T00:08:37;5.00;99.90
9975;DHT22;5028;50.974;4.968;2023-11-22T00:11:06;5.10;99.90
9975;DHT22;5028;50.974;4.968;2023-11-22T00:13:34;5.10;99.90
9975;DHT22;5028;50.974;4.968;2023-11-22T00:16:03;5.10;99.90
9975;DHT22;5028;50.974;4.968;2023-11-22T00:18:32;5.10;99.90
9975;DHT22;5028;50.974;4.968;2023-11-22T00:21:01;5.10;99.90
9975;DHT22;5028;50.974;4.968;2023-11-22T00:23:31;5.20;99.90
9975;DHT22;5028;50.974;4.968;2023-11-22T00:26:00;5.20;99.90
9975;DHT22;5028;50.974;4.968;2023-11-22T00:28:29;5.20;99.90
9975;DHT22;5028;50.974;4.968;2023-11-22T00:30:57;5.20;99.90
9975;DHT22;5028;50.974;4.968;2023-11-22T00:33:26;5.20;99.90
9975;DHT22;5028;50.974;4.968;2023-11-22T00:35:56;5.20;99.90
9975;DHT22;5028;50.974;4.968;2023-11-22T00:38:25;5.20;99.90
9975;DHT22;5028;50.974;4.968;2023-11-22T00:40:55;5.10;99.90
9975;DHT22;5028;50.974;4.968;2023-11-22T00:43:24;5.10;99.90
9975;DHT22;5028;50.974;4.968;2023-11-22T00:45:53;5.10;99.90
9975;DHT22;5028;50.974;4.968;2023-11-22T00:48:21;5.10;99.90
9975;DHT22;5028;50.974;4.968;2023-11-22T00:50:50;5.10;99.90
9975;DHT22;5028;50.974;4.968;2023-11-22T00:53:19;5.10;99.90
9975;DHT22;5028;50.974;4.968;2023-11-22T00:55:47;5.10;99.90
9975;DHT22;5028;50.974;4.968;2023-11-22T00:58:18;5.10;99.90
9975;DHT22;5028;50.974;4.968;2023-11-22T01:00:46;5.10;99.90
9975;DHT22;5028;50.974;4.968;2023-11-22T01:03:15;5.10;99.90
9975;DHT22;5028;50.974;4.968;2023-11-22T01:05:43;5.10;99.90
9975;DHT22;5028;50.974;4.968;2023-11-22T01:08:15;5.20;99.90
9975;DHT22;5028;50.974;4.968;2023-11-22T01:10:43;5.20;99.90
9975;DHT22;5028;50.974;4.968;2023-11-22T01:13:12;5.20;99.90
9975;DHT22;5028;50.974;4.968;2023-11-22T01:15:43;5.20;99.90
9975;DHT22;5028;50.974;4.968;2023-11-22T01:18:12;5.10;99.90
9975;DHT22;5028;50.974;4.968;2023-11-22T01:20:41;5.10;99.90
9975;DHT22;5028;50.974;4.968;2023-11-22T01:23:10;5.20;99.90
9975;DHT22;5028;50.974;4.968;2023-11-22T01:25:39;5.20;99.90
9975;DHT22;5028;50.974;4.968;2023-11-22T01:28:07;5.20;99.90
9975;DHT22;5028;50.974;4.968;2023-11-22T01:30:38;5.20;99.90
9975;DHT22;5028;50.974;4.968;2023-11-22T01:33:08;5.20;99.90
9975;DHT22;5028;50.974;4.968;2023-11-22T01:35:36;5.20;99.90
9975;DHT22;5028;50.974;4.968;2023-11-22T01:38:07;5.20;99.90
9975;DHT22;5028;50.974;4.968;2023-11-22T01:40:44;5.20;99.90
9975;DHT22;5028;50.974;4.968;2023-11-22T01:43:14;5.10;99.90
9975;DHT22;5028;50.974;4.968;2023-11-22T01:45:44;5.20;99.90
9975;DHT22;5028;50.974;4.968;2023-11-22T01:48:14;5.20;99.90
9975;DHT22;5028;50.974;4.968;2023-11-22T01:50:43;5.20;99.90
9975;DHT22;5028;50.974;4.968;2023-11-22T01:53:14;5.20;99.90
9975;DHT22;5028;50.974;4.968;2023-11-22T01:55:44;5.20;99.90
9975;DHT22;5028;50.974;4.968;2023-11-22T01:58:13;5.20;99.90
9975;DHT22;5028;50.974;4.968;2023-11-22T02:00:45;5.20;99.90
9975;DHT22;5028;50.974;4.968;2023-11-22T02:03:15;5.30;99.90
9975;DHT22;5028;50.974;4.968;2023-11-22T02:05:45;5.20;99.90
9975;DHT22;5028;50.974;4.968;2023-11-22T02:08:13;5.20;99.90
9975;DHT22;5028;50.974;4.968;2023-11-22T02:10:43;5.20;99.90
9975;DHT22;5028;50.974;4.968;2023-11-22T02:13:14;5.20;99.90
9975;DHT22;5028;50.974;4.968;2023-11-22T02:15:42;5.30;99.90
9975;DHT22;5028;50.974;4.968;2023-11-22T02:18:15;5.20;99.90
9975;DHT22;5028;50.974;4.968;2023-11-22T02:20:43;5.20;99.90
9975;DHT22;5028;50.974;4.968;2023-11-22T02:23:13;5.20;99.90
9975;DHT22;5028;50.974;4.968;2023-11-22T02:25:42;5.20;99.90
9975;DHT22;5028;50.974;4.968;2023-11-22T02:28:11;5.20;99.90
9975;DHT22;5028;50.974;4.968;2023-11-22T02:30:40;5.30;99.90
9975;DHT22;5028;50.974;4.968;2023-11-22T02:33:09;5.30;99.90
9975;DHT22;5028;50.974;4.968;2023-11-22T02:35:37;5.30;99.90
9975;DHT22;5028;50.974;4.968;2023-11-22T02:38:05;5.30;99.90
9975;DHT22;5028;50.974;4.968;2023-11-22T02:40:36;5.30;99.90
9975;DHT22;5028;50.974;4.968;2023-11-22T02:43:06;5.30;99.90
9975;DHT22;5028;50.974;4.968;2023-11-22T02:45:36;5.20;99.90
9975;DHT22;5028;50.974;4.968;2023-11-22T02:48:08;5.30;99.90
9975;DHT22;5028;50.974;4.968;2023-11-22T02:50:37;5.20;99.90
9975;DHT22;5028;50.974;4.968;2023-11-22T02:53:06;5.20;99.90
9975;DHT22;5028;50.974;4.968;2023-11-22T02:55:37;5.20;99.90
9975;DHT22;5028;50.974;4.968;2023-11-22T02:58:06;5.10;99.90
9975;DHT22;5028;50.974;4.968;2023-11-22T03:00:34;5.10;99.90
9975;DHT22;5028;50.974;4.968;2023-11-22T03:03:02;5.10;99.90
9975;DHT22;5028;50.974;4.968;2023-11-22T03:05:36;5.10;99.90
9975;DHT22;5028;50.974;4.968;2023-11-22T03:08:05;5.00;99.90
9975;DHT22;5028;50.974;4.968;2023-11-22T03:10:34;5.00;99.90
9975;DHT22;5028;50.974;4.968;2023-11-22T03:13:05;4.90;99.90
9975;DHT22;5028;50.974;4.968;2023-11-22T03:15:34;4.90;99.90
9975;DHT22;5028;50.974;4.968;2023-11-22T03:18:03;4.90;99.90
9975;DHT22;5028;50.974;4.968;2023-11-22T03:20:33;4.90;99.90
9975;DHT22;5028;50.974;4.968;2023-11-22T03:23:02;4.90;99.90
9975;DHT22;5028;50.974;4.968;2023-11-22T03:25:30;4.90;99.90
9975;DHT22;5028;50.974;4.968;2023-11-22T03:27:59;4.80;99.90
9975;DHT22;5028;50.974;4.968;2023-11-22T03:30:30;4.80;99.90
9975;DHT22;5028;50.974;4.968;2023-11-22T03:32:59;4.80;99.90
9975;DHT22;5028;50.974;4.968;2023-11-22T03:35:29;4.80;99.90
9975;DHT22;5028;50.974;4.968;2023-11-22T03:37:58;4.80;99.90
9975;DHT22;5028;50.974;4.968;2023-11-22T03:40:26;4.80;99.90
9975;DHT22;5028;50.974;4.968;2023-11-22T03:42:55;4.80;99.90
9975;DHT22;5028;50.974;4.968;2023-11-22T03:45:23;4.80;99.90
9975;DHT22;5028;50.974;4.968;2023-11-22T03:47:54;4.70;99.90
9975;DHT22;5028;50.974;4.968;2023-11-22T03:50:22;4.70;99.90
9975;DHT22;5028;50.974;4.968;2023-11-22T03:52:51;4.70;99.90
9975;DHT22;5028;50.974;4.968;2023-11-22T03:55:19;4.70;99.90
9975;DHT22;5028;50.974;4.968;2023-11-22T03:57:48;4.60;99.90
9975;DHT22;5028;50.974;4.968;2023-11-22T04:00:18;4.60;99.90
9975;DHT22;5028;50.974;4.968;2023-11-22T04:02:47;4.60;99.90
9975;DHT22;5028;50.974;4.968;2023-11-22T04:05:17;4.60;99.90
9975;DHT22;5028;50.974;4.968;2023-11-22T04:07:47;4.60;99.90
9975;DHT22;5028;50.974;4.968;2023-11-22T04:10:16;4.60;99.90
9975;DHT22;5028;50.974;4.968;2023-11-22T04:12:46;4.60;99.90
9975;DHT22;5028;50.974;4.968;2023-11-22T04:15:15;4.50;99.90
9975;DHT22;5028;50.974;4.968;2023-11-22T04:17:44;4.50;99.90
9975;DHT22;5028;50.974;4.968;2023-11-22T04:20:16;4.60;99.90
9975;DHT22;5028;50.974;4.968;2023-11-22T04:22:45;4.60;99.90
9975;DHT22;5028;50.974;4.968;2023-11-22T04:25:14;4.60;99.90
9975;DHT22;5028;50.974;4.968;2023-11-22T04:27:42;4.60;99.90
9975;DHT22;5028;50.974;4.968;2023-11-22T04:30:11;4.60;99.90
9975;DHT22;5028;50.974;4.968;2023-11-22T04:32:41;4.60;99.90
9975;DHT22;5028;50.974;4.968;2023-11-22T04:35:10;4.60;99.90
9975;DHT22;5028;50.974;4.968;2023-11-22T04:37:42;4.60;99.90
9975;DHT22;5028;50.974;4.968;2023-11-22T04:40:11;4.50;99.90
9975;DHT22;5028;50.974;4.968;2023-11-22T04:42:41;4.50;99.90
9975;DHT22;5028;50.974;4.968;2023-11-22T04:45:10;4.50;99.90
9975;DHT22;5028;50.974;4.968;2023-11-22T04:47:39;4.50;99.90
9975;DHT22;5028;50.974;4.968;2023-11-22T04:50:09;4.60;99.90
9975;DHT22;5028;50.974;4.968;2023-11-22T04:52:38;4.60;99.90
9975;DHT22;5028;50.974;4.968;2023-11-22T04:55:09;4.60;99.90
9975;DHT22;5028;50.974;4.968;2023-11-22T04:57:37;4.60;99.90
9975;DHT22;5028;50.974;4.968;2023-11-22T05:00:08;4.60;99.90
9975;DHT22;5028;50.974;4.968;2023-11-22T05:02:37;4.50;99.90
9975;DHT22;5028;50.974;4.968;2023-11-22T05:05:07;4.40;99.90
9975;DHT22;5028;50.974;4.968;2023-11-22T05:07:38;4.30;99.90
9975;DHT22;5028;50.974;4.968;2023-11-22T05:10:09;4.30;99.90
9975;DHT22;5028;50.974;4.968;2023-11-22T05:12:38;4.40;99.90
9975;DHT22;5028;50.974;4.968;2023-11-22T05:15:08;4.40;99.90
9975;DHT22;5028;50.974;4.968;2023-11-22T05:17:36;4.30;99.90
9975;DHT22;5028;50.974;4.968;2023-11-22T05:20:06;4.30;99.90
9975;DHT22;5028;50.974;4.968;2023-11-22T05:22:37;4.30;99.90
9975;DHT22;5028;50.974;4.968;2023-11-22T05:25:08;4.30;99.90
9975;DHT22;5028;50.974;4.968;2023-11-22T05:27:37;4.30;99.90
9975;DHT22;5028;50.974;4.968;2023-11-22T05:30:06;4.40;99.90
9975;DHT22;5028;50.974;4.968;2023-11-22T05:32:38;4.40;99.90
9975;DHT22;5028;50.974;4.968;2023-11-22T05:35:07;4.40;99.90
9975;DHT22;5028;50.974;4.968;2023-11-22T05:37:37;4.40;99.90
9975;DHT22;5028;50.974;4.968;2023-11-22T05:40:09;4.40;99.90
9975;DHT22;5028;50.974;4.968;2023-11-22T05:42:39;4.40;99.90
9975;DHT22;5028;50.974;4.968;2023-11-22T05:45:08;4.40;99.90
9975;DHT22;5028;50.974;4.968;2023-11-22T05:47:37;4.40;99.90
9975;DHT22;5028;50.974;4.968;2023-11-22T05:50:08;4.40;99.90
9975;DHT22;5028;50.974;4.968;2023-11-22T05:52:36;4.40;99.90
9975;DHT22;5028;50.974;4.968;2023-11-22T05:55:06;4.30;99.90
9975;DHT22;5028;50.974;4.968;2023-11-22T05:57:36;4.30;99.90
9975;DHT22;5028;50.974;4.968;2023-11-22T06:00:06;4.30;99.90
9975;DHT22;5028;50.974;4.968;2023-11-22T06:02:34;4.40;99.90
9975;DHT22;5028;50.974;4.968;2023-11-22T06:05:05;4.40;99.90
9975;DHT22;5028;50.974;4.968;2023-11-22T06:07:34;4.50;99.90
9975;DHT22;5028;50.974;4.968;2023-11-22T06:10:03;4.50;99.90
9975;DHT22;5028;50.974;4.968;2023-11-22T06:12:32;4.60;99.90
9975;DHT22;5028;50.974;4.968;2023-11-22T06:15:02;4.60;99.90
9975;DHT22;5028;50.974;4.968;2023-11-22T06:17:32;4.60;99.90
9975;DHT22;5028;50.974;4.968;2023-11-22T06:20:00;4.60;99.90
9975;DHT22;5028;50.974;4.968;2023-11-22T06:22:30;4.60;99.90
9975;DHT22;5028;50.974;4.968;2023-11-22T06:24:59;4.60;99.90
9975;DHT22;5028;50.974;4.968;2023-11-22T06:27:28;4.70;99.90
9975;DHT22;5028;50.974;4.968;2023-11-22T06:29:57;4.70;99.90
9975;DHT22;5028;50.974;4.968;2023-11-22T06:32:27;4.70;99.90
9975;DHT22;5028;50.974;4.968;2023-11-22T06:34:55;4.70;99.90
9975;DHT22;5028;50.974;4.968;2023-11-22T06:37:24;4.70;99.90
9975;DHT22;5028;50.974;4.968;2023-11-22T06:39:53;4.70;99.90
9975;DHT22;5028;50.974;4.968;2023-11-22T06:42:21;4.70;99.90
9975;DHT22;5028;50.974;4.968;2023-11-22T06:44:50;4.70;99.90
9975;DHT22;5028;50.974;4.968;2023-11-22T06:47:20;4.70;99.90
9975;DHT22;5028;50.974;4.968;2023-11-22T06:49:51;4.70;99.90
9975;DHT22;5028;50.974;4.968;2023-11-22T06:52:19;4.70;99.90
9975;DHT22;5028;50.974;4.968;2023-11-22T06:54:47;4.70;99.90
9975;DHT22;5028;50.974;4.968;2023-11-22T06:57:16;4.80;99.90
9975;DHT22;5028;50.974;4.968;2023-11-22T06:59:45;4.80;99.90
9975;DHT22;5028;50.974;4.968;2023-11-22T07:02:14;4.80;99.90
9975;DHT22;5028;50.974;4.968;2023-11-22T07:04:42;4.70;99.90
9975;DHT22;5028;50.974;4.968;2023-11-22T07:07:14;4.70;99.90
9975;DHT22;5028;50.974;4.968;2023-11-22T07:09:42;4.70;99.90
9975;DHT22;5028;50.974;4.968;2023-11-22T07:12:11;4.70;99.90
9975;DHT22;5028;50.974;4.968;2023-11-22T07:14:40;4.80;99.90
9975;DHT22;5028;50.974;4.968;2023-11-22T07:17:10;4.80;99.90
9975;DHT22;5028;50.974;4.968;2023-11-22T07:19:39;4.80;99.90
9975;DHT22;5028;50.974;4.968;2023-11-22T07:22:16;4.90;99.90
9975;DHT22;5028;50.974;4.968;2023-11-22T07:24:46;4.90;99.90
9975;DHT22;5028;50.974;4.968;2023-11-22T07:27:18;4.90;99.90
9975;DHT22;5028;50.974;4.968;2023-11-22T07:29:47;4.90;99.90
9975;DHT22;5028;50.974;4.968;2023-11-22T07:32:17;4.90;99.90
9975;DHT22;5028;50.974;4.968;2023-11-22T07:34:47;4.90;99.90
9975;DHT22;5028;50.974;4.968;2023-11-22T07:37:17;4.90;99.90
9975;DHT22;5028;50.974;4.968;2023-11-22T07:39:46;5.00;99.90
9975;DHT22;5028;50.974;4.968;2023-11-22T07:42:16;4.90;99.90
9975;DHT22;5028;50.974;4.968;2023-11-22T07:44:45;5.00;99.90
9975;DHT22;5028;50.974;4.968;2023-11-22T07:47:14;5.00;99.90
9975;DHT22;5028;50.974;4.968;2023-11-22T07:49:43;5.10;99.90
9975;DHT22;5028;50.974;4.968;2023-11-22T07:52:11;5.10;99.90
9975;DHT22;5028;50.974;4.968;2023-11-22T07:54:42;5.10;99.90
9975;DHT22;5028;50.974;4.968;2023-11-22T07:57:12;5.00;99.90
9975;DHT22;5028;50.974;4.968;2023-11-22T07:59:41;4.90;99.90
9975;DHT22;5028;50.974;4.968;2023-11-22T08:02:10;4.90;99.90
9975;DHT22;5028;50.974;4.968;2023-11-22T08:04:39;4.90;99.90
9975;DHT22;5028;50.974;4.968;2023-11-22T08:07:09;4.90;99.90
9975;DHT22;5028;50.974;4.968;2023-11-22T08:09:43;4.90;99.90
9975;DHT22;5028;50.974;4.968;2023-11-22T08:12:12;5.00;99.90
9975;DHT22;5028;50.974;4.968;2023-11-22T08:14:40;5.10;99.90
9975;DHT22;5028;50.974;4.968;2023-11-22T08:17:11;5.10;99.90
9975;DHT22;5028;50.974;4.968;2023-11-22T08:19:41;5.10;99.90
9975;DHT22;5028;50.974;4.968;2023-11-22T08:22:09;5.10;99.90
9975;DHT22;5028;50.974;4.968;2023-11-22T08:24:38;5.10;99.90
9975;DHT22;5028;50.974;4.968;2023-11-22T08:27:11;5.10;99.90
9975;DHT22;5028;50.974;4.968;2023-11-22T08:29:41;5.10;99.90
9975;DHT22;5028;50.974;4.968;2023-11-22T08:32:09;5.00;99.90
9975;DHT22;5028;50.974;4.968;2023-11-22T08:34:38;5.00;99.90
9975;DHT22;5028;50.974;4.968;2023-11-22T08:37:07;5.00;99.90
9975;DHT22;5028;50.974;4.968;2023-11-22T08:39:35;5.00;99.90
9975;DHT22;5028;50.974;4.968;2023-11-22T08:42:04;4.90;99.90
9975;DHT22;5028;50.974;4.968;2023-11-22T08:44:38;4.90;99.90
9975;DHT22;5028;50.974;4.968;2023-11-22T08:47:06;5.00;99.90
9975;DHT22;5028;50.974;4.968;2023-11-22T08:49:35;5.10;99.90
9975;DHT22;5028;50.974;4.968;2023-11-22T08:52:05;5.10;99.90
9975;DHT22;5028;50.974;4.968;2023-11-22T08:54:34;5.20;99.90
9975;DHT22;5028;50.974;4.968;2023-11-22T08:57:04;5.30;99.90
9975;DHT22;5028;50.974;4.968;2023-11-22T08:59:33;5.30;99.90
9975;DHT22;5028;50.974;4.968;2023-11-22T09:02:06;5.30;99.90
9975;DHT22;5028;50.974;4.968;2023-11-22T09:04:37;5.40;99.90
9975;DHT22;5028;50.974;4.968;2023-11-22T09:07:09;5.40;99.90
9975;DHT22;5028;50.974;4.968;2023-11-22T09:09:41;5.50;99.90
9975;DHT22;5028;50.974;4.968;2023-11-22T09:12:11;5.50;99.90
9975;DHT22;5028;50.974;4.968;2023-11-22T09:14:40;5.40;99.90
9975;DHT22;5028;50.974;4.968;2023-11-22T09:17:11;5.40;99.90
9975;DHT22;5028;50.974;4.968;2023-11-22T09:19:41;5.50;99.90
9975;DHT22;5028;50.974;4.968;2023-11-22T09:22:10;5.60;99.90
9975;DHT22;5028;50.974;4.968;2023-11-22T09:24:38;5.60;99.90
9975;DHT22;5028;50.974;4.968;2023-11-22T09:27:07;5.60;99.90
9975;DHT22;5028;50.974;4.968;2023-11-22T09:29:37;5.60;99.90
9975;DHT22;5028;50.974;4.968;2023-11-22T09:32:06;5.60;99.90
9975;DHT22;5028;50.974;4.968;2023-11-22T09:34:36;5.70;99.90
9975;DHT22;5028;50.974;4.968;2023-11-22T09:37:05;5.80;99.90
9975;DHT22;5028;50.974;4.968;2023-11-22T09:39:33;5.80;99.90
9975;DHT22;5028;50.974;4.968;2023-11-22T09:42:01;5.90;99.90
9975;DHT22;5028;50.974;4.968;2023-11-22T09:44:31;6.00;99.90
9975;DHT22;5028;50.974;4.968;2023-11-22T09:47:00;6.10;99.90
9975;DHT22;5028;50.974;4.968;2023-11-22T09:49:30;6.10;99.90
9975;DHT22;5028;50.974;4.968;2023-11-22T09:52:01;6.20;99.90
9975;DHT22;5028;50.974;4.968;2023-11-22T09:54:31;6.20;99.90
9975;DHT22;5028;50.974;4.968;2023-11-22T09:57:03;6.20;99.90
9975;DHT22;5028;50.974;4.968;2023-11-22T09:59:36;6.20;99.90
9975;DHT22;5028;50.974;4.968;2023-11-22T10:02:09;6.20;99.90
9975;DHT22;5028;50.974;4.968;2023-11-22T10:04:39;6.20;99.90
9975;DHT22;5028;50.974;4.968;2023-11-22T10:07:09;6.30;99.90
9975;DHT22;5028;50.974;4.968;2023-11-22T10:09:38;6.30;99.90
9975;DHT22;5028;50.974;4.968;2023-11-22T10:12:09;6.30;99.90
9975;DHT22;5028;50.974;4.968;2023-11-22T10:14:39;6.40;99.90
9975;DHT22;5028;50.974;4.968;2023-11-22T10:17:08;6.40;99.90
9975;DHT22;5028;50.974;4.968;2023-11-22T10:19:37;6.40;99.90
9975;DHT22;5028;50.974;4.968;2023-11-22T10:22:06;6.50;99.90
9975;DHT22;5028;50.974;4.968;2023-11-22T10:24:36;6.50;99.90
9975;DHT22;5028;50.974;4.968;2023-11-22T10:27:04;6.50;99.90
9975;DHT22;5028;50.974;4.968;2023-11-22T10:29:34;6.60;99.90
9975;DHT22;5028;50.974;4.968;2023-11-22T10:32:04;6.60;99.90
9975;DHT22;5028;50.974;4.968;2023-11-22T10:34:34;6.70;99.90
9975;DHT22;5028;50.974;4.968;2023-11-22T10:37:03;6.70;99.90
9975;DHT22;5028;50.974;4.968;2023-11-22T10:39:32;6.70;99.90
9975;DHT22;5028;50.974;4.968;2023-11-22T10:42:05;6.80;99.90
9975;DHT22;5028;50.974;4.968;2023-11-22T10:44:35;6.80;99.90
9975;DHT22;5028;50.974;4.968;2023-11-22T10:47:06;6.80;99.90
9975;DHT22;5028;50.974;4.968;2023-11-22T10:49:36;6.70;99.90
9975;DHT22;5028;50.974;4.968;2023-11-22T10:52:08;6.60;99.90
9975;DHT22;5028;50.974;4.968;2023-11-22T10:54:44;6.50;99.90
9975;DHT22;5028;50.974;4.968;2023-11-22T10:57:19;6.50;99.90
9975;DHT22;5028;50.974;4.968;2023-11-22T10:59:54;6.60;99.90
9975;DHT22;5028;50.974;4.968;2023-11-22T11:02:23;6.70;99.90
9975;DHT22;5028;50.974;4.968;2023-11-22T11:04:58;6.80;99.90
9975;DHT22;5028;50.974;4.968;2023-11-22T11:07:30;6.90;99.90
9975;DHT22;5028;50.974;4.968;2023-11-22T11:10:04;7.00;99.90
9975;DHT22;5028;50.974;4.968;2023-11-22T11:12:45;6.90;99.90
9975;DHT22;5028;50.974;4.968;2023-11-22T11:15:14;7.00;99.90
9975;DHT22;5028;50.974;4.968;2023-11-22T11:17:45;7.10;99.90
9975;DHT22;5028;50.974;4.968;2023-11-22T11:20:17;7.30;99.90
9975;DHT22;5028;50.974;4.968;2023-11-22T11:22:47;7.40;99.90
9975;DHT22;5028;50.974;4.968;2023-11-22T11:25:16;7.50;99.90
9975;DHT22;5028;50.974;4.968;2023-11-22T11:27:57;7.40;99.90
9975;DHT22;5028;50.974;4.968;2023-11-22T11:30:45;7.30;99.90
9975;DHT22;5028;50.974;4.968;2023-11-22T11:33:18;7.30;99.90
9975;DHT22;5028;50.974;4.968;2023-11-22T11:35:48;7.30;99.90
9975;DHT22;5028;50.974;4.968;2023-11-22T11:38:19;7.30;99.90
9975;DHT22;5028;50.974;4.968;2023-11-22T11:40:51;7.20;99.90
9975;DHT22;5028;50.974;4.968;2023-11-22T11:43:39;7.20;99.90
9975;DHT22;5028;50.974;4.968;2023-11-22T11:46:08;7.20;99.90
9975;DHT22;5028;50.974;4.968;2023-11-22T11:48:37;7.20;99.90
9975;DHT22;5028;50.974;4.968;2023-11-22T11:51:06;7.20;99.90
9975;DHT22;5028;50.974;4.968;2023-11-22T11:53:36;7.20;99.90
9975;DHT22;5028;50.974;4.968;2023-11-22T11:56:06;7.20;99.90
9975;DHT22;5028;50.974;4.968;2023-11-22T11:58:37;7.20;99.90
9975;DHT22;5028;50.974;4.968;2023-11-22T12:01:06;7.30;99.90
9975;DHT22;5028;50.974;4.968;2023-11-22T12:03:35;7.30;99.90
9975;DHT22;5028;50.974;4.968;2023-11-22T12:06:06;7.30;99.90
9975;DHT22;5028;50.974;4.968;2023-11-22T12:08:35;7.30;99.90
9975;DHT22;5028;50.974;4.968;2023-11-22T12:11:04;7.30;99.90
9975;DHT22;5028;50.974;4.968;2023-11-22T12:13:37;7.30;99.90
9975;DHT22;5028;50.974;4.968;2023-11-22T12:16:06;7.30;99.90
9975;DHT22;5028;50.974;4.968;2023-11-22T12:18:41;7.30;99.90
9975;DHT22;5028;50.974;4.968;2023-11-22T12:21:11;7.30;99.90
9975;DHT22;5028;50.974;4.968;2023-11-22T12:23:42;7.30;99.90
9975;DHT22;5028;50.974;4.968;2023-11-22T12:26:12;7.30;99.90
9975;DHT22;5028;50.974;4.968;2023-11-22T12:28:47;7.30;99.90
9975;DHT22;5028;50.974;4.968;2023-11-22T12:31:30;7.30;99.90
9975;DHT22;5028;50.974;4.968;2023-11-22T12:34:03;7.30;99.90
9975;DHT22;5028;50.974;4.968;2023-11-22T12:36:35;7.30;99.90
9975;DHT22;5028;50.974;4.968;2023-11-22T12:39:07;7.30;99.90
9975;DHT22;5028;50.974;4.968;2023-11-22T12:41:44;7.30;99.90
9975;DHT22;5028;50.974;4.968;2023-11-22T12:44:26;7.30;99.90
9975;DHT22;5028;50.974;4.968;2023-11-22T12:46:59;7.20;99.90
9975;DHT22;5028;50.974;4.968;2023-11-22T12:49:31;7.20;99.90
9975;DHT22;5028;50.974;4.968;2023-11-22T12:52:00;7.20;99.90
9975;DHT22;5028;50.974;4.968;2023-11-22T12:54:28;7.20;99.90
9975;DHT22;5028;50.974;4.968;2023-11-22T12:56:59;7.10;99.90
9975;DHT22;5028;50.974;4.968;2023-11-22T12:59:29;7.10;99.90
9975;DHT22;5028;50.974;4.968;2023-11-22T13:01:59;7.00;99.90
9975;DHT22;5028;50.974;4.968;2023-11-22T13:04:28;7.00;99.90
9975;DHT22;5028;50.974;4.968;2023-11-22T13:06:58;7.00;99.90
9975;DHT22;5028;50.974;4.968;2023-11-22T13:09:27;7.00;99.90
9975;DHT22;5028;50.974;4.968;2023-11-22T13:11:59;7.00;99.90
9975;DHT22;5028;50.974;4.968;2023-11-22T13:14:29;7.00;99.90
9975;DHT22;5028;50.974;4.968;2023-11-22T13:17:04;7.10;99.90
9975;DHT22;5028;50.974;4.968;2023-11-22T13:19:36;7.20;99.90
9975;DHT22;5028;50.974;4.968;2023-11-22T13:22:07;7.30;99.90
9975;DHT22;5028;50.974;4.968;2023-11-22T13:24:35;7.50;99.90
9975;DHT22;5028;50.974;4.968;2023-11-22T13:27:04;7.70;99.90
9975;DHT22;5028;50.974;4.968;2023-11-22T13:29:34;7.80;99.90
9975;DHT22;5028;50.974;4.968;2023-11-22T13:32:04;7.80;99.90
9975;DHT22;5028;50.974;4.968;2023-11-22T13:34:35;7.90;99.90
9975;DHT22;5028;50.974;4.968;2023-11-22T13:37:03;7.90;99.90
9975;DHT22;5028;50.974;4.968;2023-11-22T13:39:32;8.00;99.90
9975;DHT22;5028;50.974;4.968;2023-11-22T13:42:01;8.20;99.90
9975;DHT22;5028;50.974;4.968;2023-11-22T13:44:29;8.40;99.90
9975;DHT22;5028;50.974;4.968;2023-11-22T13:47:00;8.60;99.90
9975;DHT22;5028;50.974;4.968;2023-11-22T13:49:31;8.60;99.90
9975;DHT22;5028;50.974;4.968;2023-11-22T13:51:59;8.40;99.90
9975;DHT22;5028;50.974;4.968;2023-11-22T13:54:29;8.30;99.90
9975;DHT22;5028;50.974;4.968;2023-11-22T13:56:59;8.10;99.90
9975;DHT22;5028;50.974;4.968;2023-11-22T13:59:27;7.80;99.90
9975;DHT22;5028;50.974;4.968;2023-11-22T14:01:56;7.60;99.90
9975;DHT22;5028;50.974;4.968;2023-11-22T14:04:26;7.50;99.90
9975;DHT22;5028;50.974;4.968;2023-11-22T14:06:55;7.40;99.90
9975;DHT22;5028;50.974;4.968;2023-11-22T14:09:26;7.30;99.90
9975;DHT22;5028;50.974;4.968;2023-11-22T14:11:55;7.20;99.90
9975;DHT22;5028;50.974;4.968;2023-11-22T14:14:25;7.20;99.90
9975;DHT22;5028;50.974;4.968;2023-11-22T14:16:53;7.30;99.90
9975;DHT22;5028;50.974;4.968;2023-11-22T14:19:22;7.30;99.90
9975;DHT22;5028;50.974;4.968;2023-11-22T14:21:52;7.30;99.90
9975;DHT22;5028;50.974;4.968;2023-11-22T14:24:21;7.40;99.90
9975;DHT22;5028;50.974;4.968;2023-11-22T14:26:50;7.40;99.90
9975;DHT22;5028;50.974;4.968;2023-11-22T14:29:18;7.40;99.90
9975;DHT22;5028;50.974;4.968;2023-11-22T14:31:47;7.40;99.90
9975;DHT22;5028;50.974;4.968;2023-11-22T14:34:15;7.50;99.90
9975;DHT22;5028;50.974;4.968;2023-11-22T14:36:44;7.40;99.90
9975;DHT22;5028;50.974;4.968;2023-11-22T14:39:14;7.50;99.90
9975;DHT22;5028;50.974;4.968;2023-11-22T14:41:45;7.50;99.90
9975;DHT22;5028;50.974;4.968;2023-11-22T14:44:13;7.50;99.90
9975;DHT22;5028;50.974;4.968;2023-11-22T14:46:42;7.50;99.90
9975;DHT22;5028;50.974;4.968;2023-11-22T14:49:10;7.50;99.90
9975;DHT22;5028;50.974;4.968;2023-11-22T14:51:41;7.50;99.90
9975;DHT22;5028;50.974;4.968;2023-11-22T14:54:10;7.50;99.90
9975;DHT22;5028;50.974;4.968;2023-11-22T14:56:40;7.50;99.90
9975;DHT22;5028;50.974;4.968;2023-11-22T14:59:08;7.50;99.90
9975;DHT22;5028;50.974;4.968;2023-11-22T15:01:38;7.40;99.90
9975;DHT22;5028;50.974;4.968;2023-11-22T15:04:07;7.30;99.90
9975;DHT22;5028;50.974;4.968;2023-11-22T15:06:38;7.30;99.90
9975;DHT22;5028;50.974;4.968;2023-11-22T15:09:06;7.30;99.90
9975;DHT22;5028;50.974;4.968;2023-11-22T15:11:37;7.30;99.90
9975;DHT22;5028;50.974;4.968;2023-11-22T15:14:09;7.30;99.90
9975;DHT22;5028;50.974;4.968;2023-11-22T15:16:38;7.30;99.90
9975;DHT22;5028;50.974;4.968;2023-11-22T15:19:07;7.30;99.90
9975;DHT22;5028;50.974;4.968;2023-11-22T15:21:37;7.30;99.90
9975;DHT22;5028;50.974;4.968;2023-11-22T15:24:06;7.30;99.90
9975;DHT22;5028;50.974;4.968;2023-11-22T15:26:35;7.20;99.90
9975;DHT22;5028;50.974;4.968;2023-11-22T15:29:04;7.10;99.90
9975;DHT22;5028;50.974;4.968;2023-11-22T15:31:35;7.10;99.90
9975;DHT22;5028;50.974;4.968;2023-11-22T15:34:03;7.10;99.90
9975;DHT22;5028;50.974;4.968;2023-11-22T15:36:34;7.10;99.90
9975;DHT22;5028;50.974;4.968;2023-11-22T15:39:03;7.20;99.90
9975;DHT22;5028;50.974;4.968;2023-11-22T15:41:32;7.10;99.90
9975;DHT22;5028;50.974;4.968;2023-11-22T15:44:01;7.10;99.90
9975;DHT22;5028;50.974;4.968;2023-11-22T15:46:31;7.10;99.90
9975;DHT22;5028;50.974;4.968;2023-11-22T15:49:01;7.10;99.90
9975;DHT22;5028;50.974;4.968;2023-11-22T15:51:31;7.10;99.90
9975;DHT22;5028;50.974;4.968;2023-11-22T15:53:59;7.00;99.90
9975;DHT22;5028;50.974;4.968;2023-11-22T15:56:28;7.00;99.90
9975;DHT22;5028;50.974;4.968;2023-11-22T15:58:58;7.00;99.90
9975;DHT22;5028;50.974;4.968;2023-11-22T16:01:30;7.00;99.90
9975;DHT22;5028;50.974;4.968;2023-11-22T16:03:58;7.00;99.90
9975;DHT22;5028;50.974;4.968;2023-11-22T16:06:28;7.00;99.90
9975;DHT22;5028;50.974;4.968;2023-11-22T16:08:59;7.00;99.90
9975;DHT22;5028;50.974;4.968;2023-11-22T16:11:27;7.00;99.90
9975;DHT22;5028;50.974;4.968;2023-11-22T16:13:55;7.00;99.90
9975;DHT22;5028;50.974;4.968;2023-11-22T16:16:24;7.00;99.90
9975;DHT22;5028;50.974;4.968;2023-11-22T16:18:55;7.00;99.90
9975;DHT22;5028;50.974;4.968;2023-11-22T16:21:23;6.90;99.90
9975;DHT22;5028;50.974;4.968;2023-11-22T16:23:54;6.90;99.90
9975;DHT22;5028;50.974;4.968;2023-11-22T16:26:24;6.90;99.90
9975;DHT22;5028;50.974;4.968;2023-11-22T16:28:54;6.80;99.90
9975;DHT22;5028;50.974;4.968;2023-11-22T16:31:23;6.80;99.90
9975;DHT22;5028;50.974;4.968;2023-11-22T16:33:53;6.80;99.90